Aurora, CO (80011)

5:10 AM MDT on May 29, 2015 (GMT -0600)
Arapahoe 1 | | Change Station
CLOSE
Current Station
Personal Weather Station
Location: Aurora, CO
Elevation: 5531 ft
Nearby Weather Stations

Elev 5531 ft 39.73 °N, 104.77 °W | Updated 0 second ago

Scattered Clouds
Scattered Clouds
49.8 °F
Feels Like 50 °F
N
1.0
Wind Variable Wind from SE
Gusts 2.0 mph

Today
High -- | Low -- °F
--% Chance of Precip.
Yesterday
High -- | Low -- °F
Precip. -- in
5:34 AM 8:18 PM
Waxing Gibbous, 83% visible
Pressure 30.03 in
Visibility 10.0 miles
Clouds Few 4000 ft
Scattered Clouds 11000 ft
Scattered Clouds 22000 ft
Windchill 50 °F
Dew Point 36 °F
Humidity 60%
Rainfall 0.31 in
Snow Depth Not available.
UV 0 out of 12
Pollen 7.50 out of 12
Air Quality Not available.
Flu Activity Sporadic
METAR KBKF 291058Z 22004KT 10SM FEW040 SCT110 SCT220 08/06 A3017 RMK AO2A SLP168 T00750056

More Conditions Fewer Conditions

Pressure 30.03 in
Visibility 10.0 miles
Clouds Few 4000 ft
Scattered Clouds 11000 ft
Scattered Clouds 22000 ft
Windchill 50 °F
Dew Point 36 °F
Humidity 60%
Rainfall 0.31 in
Snow Depth Not available.
UV 0 out of 12
Pollen 7.50 out of 12
Air Quality Not available.
Flu Activity Sporadic
METAR KBKF 291058Z 22004KT 10SM FEW040 SCT110 SCT220 08/06 A3017 RMK AO2A SLP168 T00750056

More Conditions Fewer Conditions

10-Day Weather Forecast

Almanac

Astronomy

May. 29, 2015 Rise Set
Actual Time
Civil Twilight
Nautical Twilight
Astronomical Twilight
Moon
Length of Visible Light
Length of Day
Tomorrow will be .
, % of the Moon is Illuminated

Today's Extremes

State Highs State Lows

Community

WunderPhotos

Upload Photos

1,825,241 photos uploaded!

WunderBlogs® & News

Nearby

Air Quality

  Air Quality AQ Index Pollutant
Not available.

Snow Depth

Station Depth Elevation

Earthquake Activity

City Distance Mag. Time & Date
Minimum magnitude displayed is 2.5.

Coastal Water Temperatures

Place Temperature

Stations

Nearby Weather Stations

Station Location Temp. Windchill Dew Point Humidity Wind Precip. Elev Updated Type